Terminal Aerodrome Forecast
Issued by NWS Burlington, VT

Home | Current Version | Previous Version | Text Only | Print | Product List | Glossary On
Versions: 1 2 3 4 5 6 7 8 9 10 11 12 13 14
000
FTUS41 KBTV 291129
TAFBTV
TAF
KBTV 291129Z 2912/3012 18003KT P6SM SCT150 BKN200
     FM291400 19007KT P6SM FEW045 SCT150 BKN200
     FM300000 19004KT P6SM BKN150 OVC200
     FM300600 VRB03KT P6SM BKN100 OVC150=

USA.gov is the U.S. government's official web portal to all federal, state and local government web resources and services.